Time;durP1;ratioP1;P1;durP2;ratioP2;P2;SDS_P1;SDS_P2;PMS_P1;PMS_P2;Temp;Humidity;BMP_temperature;BMP_pressure;BME280_temperature;BME280_humidity;BME280_pressure;Samples;Min_cycle;Max_cycle;Signal;HPM_P1;HPM_P2
2021/04/04 00:00:19;;;;;;;10.82;5.68;;;-0.30;99.90;;;;;;3535410;40;20426;-64
2021/04/04 00:02:45;;;;;;;10.65;5.47;;;-0.40;99.90;;;;;;3537334;40;20062;-63
2021/04/04 00:05:12;;;;;;;10.32;5.03;;;-0.40;99.90;;;;;;3533944;40;20117;-64
2021/04/04 00:07:38;;;;;;;11.50;6.18;;;-0.50;99.90;;;;;;3534954;40;20073;-63
2021/04/04 00:10:05;;;;;;;14.38;7.28;;;-0.50;99.90;;;;;;3535370;40;20071;-64
2021/04/04 00:12:31;;;;;;;13.50;7.22;;;-0.40;99.90;;;;;;3538717;40;20188;-63
2021/04/04 00:14:57;;;;;;;15.73;8.27;;;-0.30;99.90;;;;;;3541876;40;20684;-64
2021/04/04 00:17:23;;;;;;;16.30;8.45;;;-0.10;99.90;;;;;;3539071;40;20154;-64
2021/04/04 00:19:48;;;;;;;17.25;8.50;;;-0.10;99.90;;;;;;3535845;40;20196;-63
2021/04/04 00:22:14;;;;;;;16.17;7.93;;;-0.10;99.90;;;;;;3533558;40;20495;-63
2021/04/04 00:24:40;;;;;;;14.98;7.47;;;-0.20;99.90;;;;;;3539702;40;20088;-63
2021/04/04 00:27:05;;;;;;;16.55;8.27;;;-0.20;99.90;;;;;;3537652;40;20054;-63
2021/04/04 00:29:31;;;;;;;16.10;9.10;;;-0.10;99.90;;;;;;3540721;40;20157;-64
2021/04/04 00:31:57;;;;;;;16.58;9.13;;;-0.20;99.90;;;;;;3541084;40;20069;-63
2021/04/04 00:34:23;;;;;;;17.80;9.27;;;-0.20;99.90;;;;;;3539021;40;20078;-63
2021/04/04 00:36:50;;;;;;;16.27;8.93;;;-0.20;99.90;;;;;;3536729;40;20055;-63
2021/04/04 00:39:16;;;;;;;15.15;8.25;;;-0.20;99.90;;;;;;3534295;40;20051;-64
2021/04/04 00:41:43;;;;;;;15.40;6.97;;;-0.20;99.90;;;;;;3535990;40;20065;-63
2021/04/04 00:44:09;;;;;;;11.50;5.55;;;-0.40;99.90;;;;;;3539181;40;20058;-63
2021/04/04 00:46:35;;;;;;;11.75;6.40;;;-0.40;99.90;;;;;;3541720;40;20835;-63
2021/04/04 00:49:01;;;;;;;14.95;6.80;;;-0.50;99.90;;;;;;3540655;40;20078;-63
2021/04/04 00:51:28;;;;;;;15.20;6.75;;;-0.60;99.90;;;;;;3535120;40;20688;-63
2021/04/04 00:53:54;;;;;;;11.60;6.18;;;-0.60;99.90;;;;;;3533025;40;20092;-64
2021/04/04 00:56:20;;;;;;;15.15;6.90;;;-0.60;99.90;;;;;;3533223;40;20059;-63
2021/04/04 00:58:47;;;;;;;14.80;6.63;;;-0.70;99.90;;;;;;3536688;40;20141;-63
2021/04/04 01:01:13;;;;;;;11.68;5.63;;;-0.70;99.90;;;;;;3538396;40;20779;-63
2021/04/04 01:03:39;;;;;;;12.68;6.15;;;-0.80;99.90;;;;;;3541526;40;20062;-63
2021/04/04 01:06:07;;;;;;;13.57;6.68;;;-0.90;99.90;;;;;;3545589;40;20086;-63
2021/04/04 01:08:37;;;;;;;13.93;7.47;;;-0.90;99.90;;;;;;3536061;40;20160;-63
2021/04/04 01:11:04;;;;;;;18.05;8.52;;;-0.90;99.90;;;;;;3538255;40;20478;-63
2021/04/04 01:13:58;;;;;;;14.73;6.63;;;-0.80;99.90;;;;;;3535451;40;20095;-63
2021/04/04 01:16:33;;;;;;;14.43;5.63;;;-0.90;99.90;;;;;;3539778;40;20055;-64
2021/04/04 01:19:11;;;;;;;10.50;5.65;;;-0.90;99.90;;;;;;3536623;40;20269;-63
2021/04/04 01:22:19;;;;;;;13.82;7.68;;;-1.00;99.90;;;;;;3536866;40;20063;-63
2021/04/04 01:25:06;;;;;;;19.25;9.13;;;-1.00;99.90;;;;;;3540656;40;20066;-63
2021/04/04 01:27:49;;;;;;;20.13;9.60;;;-0.90;99.90;;;;;;3535788;40;20412;-64
2021/04/04 01:30:16;;;;;;;20.92;9.35;;;-0.80;99.90;;;;;;3542681;40;20065;-63
2021/04/04 01:32:44;;;;;;;21.95;9.43;;;-0.80;99.90;;;;;;3537104;40;20516;-63
2021/04/04 01:35:12;;;;;;;17.80;9.63;;;-0.80;99.90;;;;;;3541273;40;20081;-63
2021/04/04 01:37:40;;;;;;;21.33;10.32;;;-0.70;99.90;;;;;;3543861;40;20058;-63
2021/04/04 01:40:08;;;;;;;18.85;9.65;;;-0.70;99.90;;;;;;3540707;40;20435;-63
2021/04/04 01:42:38;;;;;;;17.27;8.70;;;-0.60;99.90;;;;;;3535410;40;20339;-63
2021/04/04 01:45:08;;;;;;;17.08;8.13;;;-0.50;99.90;;;;;;3541546;40;20799;-64
2021/04/04 01:47:35;;;;;;;12.30;7.00;;;-0.60;99.90;;;;;;3541126;40;20169;-63
2021/04/04 01:50:04;;;;;;;16.88;7.43;;;-0.70;99.90;;;;;;3538089;40;20078;-64
2021/04/04 01:52:31;;;;;;;14.40;7.60;;;-0.70;99.90;;;;;;3542561;40;20399;-63
2021/04/04 01:54:57;;;;;;;12.82;6.32;;;-0.80;99.90;;;;;;3542053;40;20669;-63
2021/04/04 01:57:24;;;;;;;11.32;6.40;;;-0.90;99.90;;;;;;3539157;40;20166;-63
2021/04/04 01:59:51;;;;;;;13.82;6.18;;;-0.90;99.90;;;;;;3536201;40;20068;-63
2021/04/04 02:02:17;;;;;;;13.02;7.10;;;-1.00;99.90;;;;;;3541007;40;20223;-64
2021/04/04 02:04:43;;;;;;;12.93;6.75;;;-1.00;99.90;;;;;;3538297;40;20262;-64
2021/04/04 02:07:15;;;;;;;13.27;7.25;;;-1.00;99.90;;;;;;3541475;40;20069;-63
2021/04/04 02:09:41;;;;;;;16.90;7.80;;;-1.00;99.90;;;;;;3543553;40;20062;-63
2021/04/04 02:12:07;;;;;;;16.27;7.55;;;-1.00;99.90;;;;;;3540400;40;20179;-63
2021/04/04 02:14:35;;;;;;;11.57;6.85;;;-1.00;99.90;;;;;;3538201;40;20197;-63
2021/04/04 02:17:01;;;;;;;11.25;6.50;;;-1.00;99.90;;;;;;3535618;40;20063;-63
2021/04/04 02:19:28;;;;;;;12.35;6.68;;;-1.00;99.90;;;;;;3536357;40;20177;-63
2021/04/04 02:21:58;;;;;;;8.88;5.45;;;-1.00;99.90;;;;;;3539024;40;20050;-63
2021/04/04 02:24:29;;;;;;;13.40;6.93;;;-1.10;99.90;;;;;;3542357;40;20058;-63
2021/04/04 02:26:56;;;;;;;11.05;6.15;;;-1.10;99.90;;;;;;3540834;40;20070;-63
2021/04/04 02:29:23;;;;;;;11.75;6.25;;;-1.00;99.90;;;;;;3540395;40;20138;-64
2021/04/04 02:32:03;;;;;;;10.27;6.18;;;-1.00;99.90;;;;;;3536085;40;20170;-63
2021/04/04 02:34:36;;;;;;;10.38;5.82;;;-1.00;99.90;;;;;;3542797;40;20093;-63
2021/04/04 02:37:04;;;;;;;15.07;6.13;;;-1.00;99.90;;;;;;3540909;40;20108;-63
2021/04/04 02:39:35;;;;;;;14.02;6.35;;;-1.10;99.90;;;;;;3536831;40;20340;-63
2021/04/04 02:42:03;;;;;;;10.63;5.20;;;-1.10;99.90;;;;;;3534226;40;20168;-63
2021/04/04 02:44:31;;;;;;;10.63;5.72;;;-1.20;99.90;;;;;;3536273;40;20050;-63
2021/04/04 02:47:05;;;;;;;9.25;4.80;;;-1.30;99.90;;;;;;3539746;40;20059;-63
2021/04/04 02:49:35;;;;;;;11.65;5.45;;;-1.40;99.90;;;;;;3548098;40;20153;-63
2021/04/04 02:52:04;;;;;;;9.85;5.40;;;-1.40;99.90;;;;;;3539702;40;20054;-64
2021/04/04 02:54:33;;;;;;;14.27;6.18;;;-1.30;99.90;;;;;;3538806;40;20055;-64
2021/04/04 02:57:00;;;;;;;13.07;5.70;;;-1.40;99.90;;;;;;3536321;40;20720;-64
2021/04/04 02:59:35;;;;;;;10.05;5.70;;;-1.30;99.90;;;;;;3534885;40;20694;-64
2021/04/04 03:02:05;;;;;;;12.18;6.05;;;-1.20;99.90;;;;;;3535009;40;20878;-64
2021/04/04 03:04:34;;;;;;;14.10;6.40;;;-1.10;99.90;;;;;;3538949;40;20175;-64
2021/04/04 03:07:01;;;;;;;10.60;6.30;;;-1.00;99.90;;;;;;3542746;40;20097;-64
2021/04/04 03:09:29;;;;;;;10.77;6.18;;;-1.00;99.90;;;;;;3541286;40;20074;-63
2021/04/04 03:11:56;;;;;;;11.60;6.10;;;-1.00;99.90;;;;;;3537114;40;20315;-63
2021/04/04 03:14:23;;;;;;;17.60;6.00;;;-1.10;99.90;;;;;;3535602;40;20058;-64
2021/04/04 03:16:49;;;;;;;11.20;5.38;;;-1.00;99.90;;;;;;3535825;40;20051;-64
2021/04/04 03:19:17;;;;;;;10.18;5.72;;;-1.00;99.90;;;;;;3539152;40;20073;-64
2021/04/04 03:21:45;;;;;;;11.90;5.28;;;-1.00;99.90;;;;;;3539037;40;20403;-64
2021/04/04 03:24:13;;;;;;;10.00;5.50;;;-0.90;99.90;;;;;;3542021;40;20062;-64
2021/04/04 03:26:39;;;;;;;9.23;5.85;;;-0.90;99.90;;;;;;3539456;40;20211;-64
2021/04/04 03:29:07;;;;;;;11.07;5.30;;;-1.00;99.90;;;;;;3534849;40;20063;-64
2021/04/04 03:31:33;;;;;;;12.90;5.85;;;-1.00;99.90;;;;;;3533377;40;20059;-64
2021/04/04 03:34:00;;;;;;;12.40;6.50;;;-1.00;99.90;;;;;;3535385;40;20139;-64
2021/04/04 03:36:27;;;;;;;12.40;6.28;;;-1.10;99.90;;;;;;3538831;40;20161;-64
2021/04/04 03:38:54;;;;;;;11.07;6.13;;;-1.20;99.90;;;;;;3540565;40;20161;-64
2021/04/04 03:41:24;;;;;;;13.52;6.03;;;-1.30;99.90;;;;;;3540386;40;20160;-63
2021/04/04 03:43:51;;;;;;;10.98;6.15;;;-1.30;99.90;;;;;;3545225;40;20080;-64
2021/04/04 03:46:23;;;;;;;10.43;5.93;;;-1.40;99.90;;;;;;3542085;40;20066;-64
2021/04/04 03:48:50;;;;;;;10.13;5.18;;;-1.40;99.90;;;;;;3539821;40;20446;-64
2021/04/04 03:51:17;;;;;;;10.57;6.05;;;-1.40;99.90;;;;;;3538842;40;20080;-64
2021/04/04 03:53:45;;;;;;;10.60;6.03;;;-1.40;99.90;;;;;;3541017;40;20497;-63
2021/04/04 03:56:20;;;;;;;11.55;6.03;;;-1.40;99.90;;;;;;3533397;40;20173;-64
2021/04/04 03:58:47;;;;;;;10.75;5.72;;;-1.50;99.90;;;;;;3541128;40;20097;-64
2021/04/04 04:01:14;;;;;;;11.38;5.95;;;-1.50;99.90;;;;;;3537300;40;20054;-64
2021/04/04 04:03:41;;;;;;;11.23;5.95;;;-1.40;99.90;;;;;;3541853;40;20908;-63
2021/04/04 04:06:08;;;;;;;11.38;6.55;;;-1.50;99.90;;;;;;3543602;40;20065;-63
2021/04/04 04:08:37;;;;;;;11.13;5.70;;;-1.50;99.90;;;;;;3539807;40;20061;-64
2021/04/04 04:11:05;;;;;;;8.05;5.20;;;-1.50;99.90;;;;;;3536803;40;20058;-64
2021/04/04 04:13:31;;;;;;;9.35;4.90;;;-1.50;99.90;;;;;;3541718;40;20736;-64
2021/04/04 04:15:59;;;;;;;12.18;5.28;;;-1.40;99.90;;;;;;3541005;40;20078;-63
2021/04/04 04:18:25;;;;;;;9.68;5.28;;;-1.40;99.90;;;;;;3537805;40;20063;-64
2021/04/04 04:20:51;;;;;;;9.32;5.00;;;-1.30;99.90;;;;;;3533203;40;20058;-64
2021/04/04 04:23:17;;;;;;;9.68;5.32;;;-1.30;99.90;;;;;;3540961;40;20084;-64
2021/04/04 04:25:45;;;;;;;15.13;6.13;;;-1.30;99.90;;;;;;3540804;40;20072;-63
2021/04/04 04:28:10;;;;;;;11.68;5.97;;;-1.20;99.90;;;;;;3536900;40;20059;-64
2021/04/04 04:30:37;;;;;;;9.40;4.95;;;-1.20;99.90;;;;;;3539603;40;20065;-64
2021/04/04 04:33:06;;;;;;;9.43;5.38;;;-1.10;99.90;;;;;;3536345;40;20070;-64
2021/04/04 04:35:32;;;;;;;8.07;4.90;;;-1.10;99.90;;;;;;3541780;40;20085;-64
2021/04/04 04:38:00;;;;;;;10.25;4.80;;;-0.90;99.90;;;;;;3539023;40;20082;-64
2021/04/04 04:40:27;;;;;;;8.55;4.50;;;-0.90;99.90;;;;;;3540114;40;20077;-64
2021/04/04 04:42:55;;;;;;;11.13;5.22;;;-0.90;99.90;;;;;;3536851;40;20266;-64
2021/04/04 04:45:33;;;;;;;9.95;4.95;;;-0.80;99.90;;;;;;3534203;40;20055;-64
2021/04/04 04:47:59;;;;;;;10.40;5.53;;;-0.70;99.90;;;;;;3542897;40;20184;-64
2021/04/04 04:50:26;;;;;;;13.50;4.90;;;-0.70;99.90;;;;;;3537524;40;20094;-64
2021/04/04 04:52:54;;;;;;;9.50;4.30;;;-0.80;99.90;;;;;;3541304;40;20462;-64
2021/04/04 04:55:20;;;;;;;11.88;4.57;;;-0.70;99.90;;;;;;3544731;40;20058;-63
2021/04/04 04:57:47;;;;;;;8.25;4.72;;;-0.80;99.90;;;;;;3543041;40;20292;-64
2021/04/04 05:00:14;;;;;;;9.75;5.07;;;-0.70;99.90;;;;;;3540520;40;20646;-64
2021/04/04 05:02:41;;;;;;;9.63;4.63;;;-0.60;99.90;;;;;;3541312;40;20070;-64
2021/04/04 05:05:09;;;;;;;9.35;5.10;;;-0.70;99.90;;;;;;3542513;40;20877;-64
2021/04/04 05:07:36;;;;;;;12.13;4.97;;;-0.80;99.90;;;;;;3545943;40;20145;-64
2021/04/04 05:10:06;;;;;;;12.00;5.47;;;-0.80;99.90;;;;;;3542719;40;20069;-64
2021/04/04 05:12:35;;;;;;;14.23;4.90;;;-0.80;99.90;;;;;;3542587;40;20073;-64
2021/04/04 05:15:05;;;;;;;11.88;5.30;;;-0.80;99.90;;;;;;3540573;40;20078;-64
2021/04/04 05:17:34;;;;;;;10.73;5.32;;;-0.70;99.90;;;;;;3543427;40;20325;-67
2021/04/04 05:20:05;;;;;;;7.95;4.90;;;-0.60;99.90;;;;;;3540070;40;20062;-65
2021/04/04 05:22:31;;;;;;;13.93;5.70;;;-0.60;99.90;;;;;;3540805;40;20085;-65
2021/04/04 05:24:58;;;;;;;10.13;5.07;;;-0.60;99.90;;;;;;3542993;40;20082;-65
2021/04/04 05:27:23;;;;;;;10.70;5.18;;;-0.60;99.90;;;;;;3544045;40;20856;-66
2021/04/04 05:29:49;;;;;;;7.63;4.50;;;-0.50;99.90;;;;;;3543451;40;20058;-65
2021/04/04 05:32:15;;;;;;;8.77;4.85;;;-0.30;99.90;;;;;;3541200;40;20794;-65
2021/04/04 05:34:41;;;;;;;9.70;4.93;;;-0.30;99.90;;;;;;3542425;40;20144;-65
2021/04/04 05:37:08;;;;;;;8.32;4.65;;;-0.40;99.90;;;;;;3543903;40;20062;-64
2021/04/04 05:39:38;;;;;;;9.43;5.28;;;-0.30;99.90;;;;;;3545801;40;20101;-64
2021/04/04 05:42:06;;;;;;;10.20;5.70;;;-0.30;99.90;;;;;;3544137;40;20073;-67
2021/04/04 05:44:45;;;;;;;10.38;5.60;;;-0.30;99.90;;;;;;3544491;40;20058;-64
2021/04/04 05:47:39;;;;;;;9.55;5.00;;;-0.30;99.90;;;;;;3543267;40;20081;-64
2021/04/04 05:50:10;;;;;;;10.65;5.20;;;-0.20;99.90;;;;;;3535492;40;20058;-64
2021/04/04 05:52:47;;;;;;;13.02;5.35;;;-0.10;99.90;;;;;;3541025;40;20074;-64
2021/04/04 05:55:37;;;;;;;11.52;5.05;;;0.00;99.90;;;;;;3541519;40;20081;-64
2021/04/04 05:58:11;;;;;;;9.27;4.63;;;0.20;99.90;;;;;;3542926;40;20180;-64
2021/04/04 06:00:44;;;;;;;13.50;8.40;;;0.30;99.90;;;;;;3541387;40;20077;-64
2021/04/04 06:03:13;;;;;;;11.15;5.57;;;0.40;99.90;;;;;;3540676;40;20424;-63
2021/04/04 06:06:15;;;;;;;13.50;6.00;;;0.60;99.90;;;;;;3537234;40;20059;-64
2021/04/04 06:09:01;;;;;;;11.85;5.82;;;0.70;99.90;;;;;;3543608;40;20070;-64
2021/04/04 06:11:52;;;;;;;8.73;4.60;;;0.80;99.90;;;;;;3539787;40;20085;-64
2021/04/04 06:15:01;;;;;;;10.20;4.55;;;0.90;99.90;;;;;;3545427;40;20058;-63
2021/04/04 06:17:44;;;;;;;7.30;4.13;;;1.00;99.90;;;;;;3544449;40;20065;-64
2021/04/04 06:20:47;;;;;;;8.82;4.68;;;1.20;99.90;;;;;;3537238;40;21020;-64
2021/04/04 06:23:39;;;;;;;8.20;4.60;;;1.20;99.90;;;;;;3542648;40;20066;-64
2021/04/04 06:26:28;;;;;;;72.07;47.85;;;1.40;99.90;;;;;;3548910;40;20093;-64
2021/04/04 06:29:16;;;;;;;28.17;17.25;;;1.60;99.90;;;;;;3544423;40;20164;-64
2021/04/04 06:32:16;;;;;;;16.00;8.70;;;1.70;99.90;;;;;;3540000;40;20510;-64
2021/04/04 06:35:00;;;;;;;14.40;8.88;;;1.90;99.90;;;;;;3545209;40;20070;-64
2021/04/04 06:37:55;;;;;;;14.63;7.72;;;2.10;99.90;;;;;;3545155;40;20428;-64
2021/04/04 06:40:43;;;;;;;8.25;4.68;;;2.20;99.90;;;;;;3533804;40;20941;-64
2021/04/04 06:43:28;;;;;;;6.95;4.43;;;2.50;99.90;;;;;;3542055;40;20172;-64
2021/04/04 06:46:28;;;;;;;8.40;4.28;;;2.50;99.90;;;;;;3548179;40;20897;-64
2021/04/04 06:49:15;;;;;;;6.80;4.63;;;2.80;99.90;;;;;;3544279;40;20054;-64
2021/04/04 06:51:53;;;;;;;11.80;6.45;;;3.00;99.90;;;;;;3540227;40;20062;-64
2021/04/04 06:55:01;;;;;;;16.08;3.92;;;3.10;99.90;;;;;;3542092;40;20167;-64
2021/04/04 06:57:46;;;;;;;10.25;3.30;;;3.30;99.90;;;;;;3546115;40;20327;-64
2021/04/04 07:00:13;;;;;;;8.85;4.47;;;3.50;99.90;;;;;;3541353;40;20069;-63
2021/04/04 07:03:04;;;;;;;7.20;4.00;;;3.60;99.90;;;;;;3540851;40;20073;-63
2021/04/04 07:05:35;;;;;;;16.45;6.53;;;3.70;99.90;;;;;;3543093;40;20164;-64
2021/04/04 07:08:16;;;;;;;10.95;4.03;;;3.90;99.90;;;;;;3541718;40;20055;-64
2021/04/04 07:11:02;;;;;;;8.73;3.53;;;4.00;99.90;;;;;;3543578;40;20387;-64
2021/04/04 07:13:43;;;;;;;8.82;3.83;;;4.10;99.90;;;;;;3542527;40;20180;-64
2021/04/04 07:16:26;;;;;;;11.02;3.80;;;4.10;99.90;;;;;;3541472;40;20062;-64
2021/04/04 07:18:55;;;;;;;9.82;3.58;;;4.20;99.90;;;;;;3541810;40;20296;-64
2021/04/04 07:21:39;;;;;;;10.88;5.22;;;4.30;99.90;;;;;;3541781;40;20069;-64
2021/04/04 07:24:26;;;;;;;10.25;3.72;;;4.60;99.90;;;;;;3544571;40;20814;-64
2021/04/04 07:27:04;;;;;;;9.27;3.88;;;4.80;99.90;;;;;;3549089;40;20097;-64
2021/04/04 07:29:45;;;;;;;8.02;3.63;;;4.90;99.90;;;;;;3546834;40;20415;-64
2021/04/04 07:32:35;;;;;;;8.57;4.15;;;4.90;99.90;;;;;;3543088;40;20073;-64
2021/04/04 07:35:03;;;;;;;13.63;3.83;;;5.10;99.90;;;;;;3543677;40;20101;-64
2021/04/04 07:37:43;;;;;;;12.27;4.78;;;5.20;99.90;;;;;;3541356;40;20770;-64
2021/04/04 07:40:16;;;;;;;13.48;3.92;;;5.40;99.90;;;;;;3538370;40;20424;-64
2021/04/04 07:44:19;;;;;;;13.43;4.47;;;5.60;99.90;;;;;;3574731;39;20461;-65
2021/04/04 07:47:04;;;;;;;11.35;4.93;;;6.00;99.90;;;;;;3578886;40;20516;-63
2021/04/04 07:49:34;;;;;;;18.48;4.68;;;6.20;99.90;;;;;;3571314;40;20098;-63
2021/04/04 07:52:23;;;;;;;14.55;4.65;;;6.30;99.90;;;;;;3572740;40;20037;-63
2021/04/04 07:55:39;;;;;;;19.83;5.45;;;6.60;99.90;;;;;;3565733;40;20062;-63
2021/04/04 07:58:14;;;;;;;15.25;4.68;;;7.00;99.90;;;;;;3565352;40;20098;-63
2021/04/04 08:00:46;;;;;;;19.40;4.97;;;7.50;99.90;;;;;;3575349;40;20680;-64
2021/04/04 08:03:17;;;;;;;20.92;5.50;;;7.70;99.90;;;;;;3572896;40;20040;-64
2021/04/04 08:05:46;;;;;;;20.05;5.63;;;7.80;99.90;;;;;;3573564;40;20051;-64
2021/04/04 08:08:19;;;;;;;23.98;4.90;;;8.00;99.90;;;;;;3576536;40;20648;-63
2021/04/04 08:10:52;;;;;;;20.63;5.88;;;8.20;99.90;;;;;;3571350;40;20162;-62
2021/04/04 08:13:35;;;;;;;28.10;7.85;;;8.40;99.90;;;;;;3568612;39;20407;-62
2021/04/04 08:16:07;;;;;;;23.73;5.00;;;8.70;99.90;;;;;;3571882;40;20075;-62
2021/04/04 08:18:35;;;;;;;16.02;4.90;;;9.00;99.60;;;;;;3580622;40;20044;-63
2021/04/04 08:21:27;;;;;;;16.40;4.97;;;9.00;99.00;;;;;;3570933;40;20040;-66
2021/04/04 08:24:17;;;;;;;20.10;5.65;;;9.00;99.60;;;;;;3568646;40;20060;-63
2021/04/04 08:27:08;;;;;;;23.60;5.45;;;9.10;99.30;;;;;;3565613;40;20069;-62
2021/04/04 08:29:49;;;;;;;17.65;5.25;;;9.20;99.30;;;;;;3572763;40;20044;-62
2021/04/04 08:32:19;;;;;;;17.85;5.57;;;9.50;98.80;;;;;;3574636;40;20390;-62
2021/04/04 08:34:56;;;;;;;16.60;4.78;;;9.50;98.40;;;;;;3567734;40;20037;-63
2021/04/04 08:37:31;;;;;;;19.60;5.45;;;9.60;98.40;;;;;;3576849;40;20049;-63
2021/04/04 08:40:05;;;;;;;;;;;9.50;98.60;;;;;;3571818;40;20036;-62
2021/04/04 08:42:33;;;;;;;17.30;5.25;;;9.30;99.10;;;;;;3568256;40;20002;-63
2021/04/04 08:45:09;;;;;;;17.00;4.80;;;9.50;98.80;;;;;;3578792;40;20035;-63
2021/04/04 08:47:47;;;;;;;22.67;5.65;;;9.50;98.10;;;;;;3574782;40;20128;-63
2021/04/04 08:50:16;;;;;;;20.15;5.65;;;9.50;98.70;;;;;;3571182;40;20048;-63
2021/04/04 08:52:59;;;;;;;18.20;5.45;;;9.60;97.70;;;;;;3575161;40;20125;-63
2021/04/04 08:55:27;;;;;;;24.40;5.82;;;9.50;98.30;;;;;;3569751;40;20130;-63
2021/04/04 08:58:22;;;;;;;17.83;5.30;;;9.30;98.20;;;;;;3566448;40;20472;-62
2021/04/04 09:01:00;;;;;;;19.88;7.03;;;9.50;98.50;;;;;;3564831;40;20045;-69
2021/04/04 09:03:27;;;;;;;18.23;5.68;;;9.80;98.00;;;;;;3560652;40;20045;-72
2021/04/04 09:06:03;;;;;;;18.70;5.45;;;10.00;96.70;;;;;;3562422;40;20095;-69
2021/04/04 09:08:30;;;;;;;18.60;5.82;;;9.80;97.10;;;;;;3564387;40;20038;-70
2021/04/04 09:10:57;;;;;;;16.85;5.72;;;9.70;98.10;;;;;;3563954;40;20060;-70
2021/04/04 09:13:23;;;;;;;19.05;5.55;;;9.80;97.60;;;;;;3563120;40;20100;-69
2021/04/04 09:15:53;;;;;;;19.73;5.25;;;9.80;97.50;;;;;;3565499;40;20038;-71
2021/04/04 09:18:20;;;;;;;21.55;5.78;;;9.90;96.90;;;;;;3564508;40;20029;-69
2021/04/04 09:20:47;;;;;;;27.20;6.13;;;10.10;97.30;;;;;;3567143;40;20041;-70
2021/04/04 09:23:21;;;;;;;23.83;7.20;;;10.20;96.40;;;;;;3555096;40;20107;-69
2021/04/04 09:25:53;;;;;;;24.40;11.32;;;10.20;96.30;;;;;;3563974;40;20068;-70
2021/04/04 09:28:21;;;;;;;23.42;5.10;;;10.30;95.50;;;;;;3563816;40;20089;-70
2021/04/04 09:30:47;;;;;;;19.75;4.78;;;10.70;95.40;;;;;;3564577;40;20037;-70
2021/04/04 09:33:26;;;;;;;21.48;7.53;;;10.70;94.40;;;;;;3565081;40;20057;-69
2021/04/04 09:36:03;;;;;;;24.15;9.90;;;10.70;94.80;;;;;;3561971;40;20100;-70
2021/04/04 09:38:31;;;;;;;33.88;12.15;;;10.90;94.30;;;;;;3566170;40;20042;-69
2021/04/04 09:40:58;;;;;;;16.33;4.45;;;11.00;94.90;;;;;;3564437;40;20045;-70
2021/04/04 09:43:25;;;;;;;23.10;5.28;;;11.20;93.10;;;;;;3565363;40;20207;-70
2021/04/04 09:46:03;;;;;;;19.67;5.30;;;11.40;92.90;;;;;;3564398;40;20877;-70
2021/04/04 09:48:28;;;;;;;21.88;4.90;;;11.50;91.90;;;;;;3566367;40;20041;-70
2021/04/04 09:51:12;;;;;;;25.92;5.30;;;11.40;91.70;;;;;;3564786;40;20044;-70
2021/04/04 09:53:41;;;;;;;16.20;4.40;;;11.30;92.90;;;;;;3564479;40;20083;-70
2021/04/04 09:56:12;;;;;;;21.20;4.68;;;11.40;91.50;;;;;;3565103;40;20295;-70
2021/04/04 09:58:44;;;;;;;17.85;5.40;;;11.20;91.70;;;;;;3561326;40;20041;-69
2021/04/04 10:01:32;;;;;;;31.60;5.60;;;11.40;91.60;;;;;;3561571;40;20127;-69
2021/04/04 10:03:59;;;;;;;21.13;4.70;;;11.70;91.10;;;;;;3565601;40;20044;-69
2021/04/04 10:06:26;;;;;;;22.67;5.38;;;11.80;90.90;;;;;;3565329;40;20146;-69
2021/04/04 10:08:56;;;;;;;25.15;5.80;;;11.70;90.60;;;;;;3565792;40;20028;-69
2021/04/04 10:11:24;;;;;;;14.77;4.78;;;12.00;91.10;;;;;;3563735;40;20044;-70
2021/04/04 10:13:50;;;;;;;27.27;5.72;;;12.40;88.20;;;;;;3559583;40;20104;-68
2021/04/04 10:16:23;;;;;;;24.08;4.43;;;12.40;86.20;;;;;;3566617;40;20084;-69
2021/04/04 10:19:05;;;;;;;17.35;4.50;;;12.40;87.80;;;;;;3563675;40;20037;-69
2021/04/04 10:21:33;;;;;;;16.08;4.40;;;12.80;85.00;;;;;;3560184;40;20033;-69
2021/04/04 10:23:59;;;;;;;18.58;4.82;;;12.70;84.00;;;;;;3561649;40;20037;-69
2021/04/04 10:26:25;;;;;;;18.13;4.82;;;12.70;82.10;;;;;;3564654;40;20032;-68
2021/04/04 10:29:05;;;;;;;23.27;5.22;;;12.40;82.40;;;;;;3563508;40;20029;-69
2021/04/04 10:31:48;;;;;;;17.27;4.10;;;12.30;83.80;;;;;;3566966;40;20044;-68
2021/04/04 10:34:14;;;;;;;29.38;5.32;;;12.20;83.80;;;;;;3564254;40;20037;-68
2021/04/04 10:36:39;;;;;;;19.45;5.43;;;11.70;84.20;;;;;;3568910;40;20622;-68
2021/04/04 10:39:20;;;;;;;19.40;4.53;;;11.40;86.30;;;;;;3562806;40;20123;-68
2021/04/04 10:41:46;;;;;;;19.42;4.43;;;11.20;87.30;;;;;;3559984;40;20157;-71
2021/04/04 10:44:22;;;;;;;14.13;4.68;;;11.00;88.50;;;;;;3565433;40;20111;-71
2021/04/04 10:46:48;;;;;;;16.08;4.38;;;11.50;88.40;;;;;;3568472;40;20072;-71
2021/04/04 10:49:15;;;;;;;19.75;4.53;;;12.10;84.20;;;;;;3561363;40;20111;-71
2021/04/04 10:51:41;;;;;;;20.02;4.38;;;12.60;84.20;;;;;;3563895;40;20037;-71
2021/04/04 10:54:07;;;;;;;24.45;4.40;;;12.90;81.30;;;;;;3565577;40;20064;-71
2021/04/04 10:56:35;;;;;;;24.08;4.32;;;13.20;80.90;;;;;;3562537;40;20062;-71
2021/04/04 10:59:01;;;;;;;11.27;3.70;;;13.40;77.90;;;;;;3562844;40;20029;-71
2021/04/04 11:01:32;;;;;;;13.45;3.70;;;13.20;78.20;;;;;;3565684;40;20096;-71
2021/04/04 11:03:58;;;;;;;20.83;4.00;;;13.10;75.70;;;;;;3561940;40;20421;-71
2021/04/04 11:06:24;;;;;;;15.50;4.10;;;12.60;75.60;;;;;;3565469;40;20500;-71
2021/04/04 11:08:50;;;;;;;11.25;3.78;;;12.10;78.60;;;;;;3565336;40;20041;-71
2021/04/04 11:11:16;;;;;;;12.20;4.07;;;11.70;80.20;;;;;;3561231;40;20040;-71
2021/04/04 11:13:52;;;;;;;18.92;4.15;;;11.40;82.00;;;;;;3561954;40;20048;-71
2021/04/04 11:16:21;;;;;;;21.17;4.22;;;11.20;82.30;;;;;;3565330;40;20123;-71
2021/04/04 11:18:52;;;;;;;15.55;3.78;;;11.40;83.90;;;;;;3565297;40;20099;-71
2021/04/04 11:21:27;;;;;;;20.92;4.53;;;12.10;83.00;;;;;;3567543;40;20512;-72
2021/04/04 11:23:53;;;;;;;12.80;3.63;;;12.60;80.30;;;;;;3563045;40;20079;-73
2021/04/04 11:26:29;;;;;;;19.98;4.60;;;12.50;79.00;;;;;;3568473;40;20451;-71
2021/04/04 11:29:15;;;;;;;16.33;3.90;;;12.20;79.00;;;;;;3562221;40;20161;-70
2021/04/04 11:31:46;;;;;;;19.38;4.45;;;12.00;81.10;;;;;;3563536;40;20049;-70
2021/04/04 11:34:38;;;;;;;15.07;3.40;;;12.10;81.50;;;;;;3563975;40;20590;-70
2021/04/04 11:37:27;;;;;;;12.55;3.67;;;12.50;80.20;;;;;;3559480;40;20041;-71
2021/04/04 11:40:12;;;;;;;18.63;3.92;;;12.50;78.70;;;;;;3561837;40;20286;-69
2021/04/04 11:42:39;;;;;;;17.13;4.20;;;12.10;79.80;;;;;;3561648;40;20077;-71
2021/04/04 11:45:06;;;;;;;17.77;3.80;;;12.00;80.10;;;;;;3565584;40;20091;-70
2021/04/04 11:47:32;;;;;;;18.45;3.97;;;12.10;79.70;;;;;;3562305;40;20045;-70
2021/04/04 11:49:58;;;;;;;18.88;3.65;;;12.80;79.10;;;;;;3562977;40;20037;-71
2021/04/04 11:52:34;;;;;;;13.90;3.80;;;13.30;73.60;;;;;;3561793;40;20048;-71
2021/04/04 11:55:00;;;;;;;13.18;3.53;;;13.10;74.50;;;;;;3564922;40;20294;-70
2021/04/04 11:57:32;;;;;;;14.63;4.45;;;13.30;74.50;;;;;;3562842;40;20377;-70
2021/04/04 12:00:03;;;;;;;18.95;4.47;;;13.30;74.30;;;;;;3566268;40;20096;-72
2021/04/04 12:02:31;;;;;;;14.73;3.67;;;13.10;74.20;;;;;;3558894;40;20784;-72
2021/04/04 12:05:14;;;;;;;14.38;3.90;;;13.00;74.50;;;;;;3565570;40;20065;-70
2021/04/04 12:07:51;;;;;;;17.80;3.58;;;12.70;75.50;;;;;;3564446;40;20694;-70
2021/04/04 12:10:19;;;;;;;15.55;4.07;;;12.60;76.50;;;;;;3564394;40;20041;-71
2021/04/04 12:12:45;;;;;;;22.02;4.75;;;12.90;76.70;;;;;;3563487;40;20060;-70
2021/04/04 12:15:13;;;;;;;17.50;4.72;;;13.20;76.50;;;;;;3565603;40;20519;-70
2021/04/04 12:17:47;;;;;;;14.18;3.53;;;13.60;73.20;;;;;;3561261;40;20033;-70
2021/04/04 12:20:14;;;;;;;16.20;3.53;;;14.30;71.70;;;;;;3558430;40;20045;-71
2021/04/04 12:22:43;;;;;;;15.30;3.47;;;15.10;67.00;;;;;;3552013;40;20042;-71
2021/04/04 12:25:17;;;;;;;16.10;3.35;;;15.50;63.90;;;;;;3571179;40;20701;-71
2021/04/04 12:27:45;;;;;;;13.75;3.65;;;15.00;64.70;;;;;;3561024;40;20041;-70
2021/04/04 12:30:22;;;;;;;17.13;3.30;;;15.00;65.60;;;;;;3564770;40;20038;-71
2021/04/04 12:32:48;;;;;;;14.45;3.92;;;15.20;66.40;;;;;;3565226;40;20037;-71
2021/04/04 12:35:23;;;;;;;13.10;3.40;;;15.60;62.60;;;;;;3564942;40;20045;-71
2021/04/04 12:37:49;;;;;;;14.93;3.42;;;15.40;61.50;;;;;;3567815;40;20034;-71
2021/04/04 12:40:15;;;;;;;17.48;3.67;;;15.40;62.80;;;;;;3562363;40;20064;-72
2021/04/04 12:42:40;;;;;;;16.42;4.25;;;15.60;61.20;;;;;;3568144;40;20041;-72
2021/04/04 12:45:08;;;;;;;14.13;4.05;;;15.40;62.50;;;;;;3565388;40;20041;-71
2021/04/04 12:47:35;;;;;;;12.50;3.10;;;15.20;61.90;;;;;;3566208;40;20855;-71
2021/04/04 12:50:12;;;;;;;15.27;3.80;;;15.00;60.80;;;;;;3566605;40;20112;-72
2021/04/04 12:52:50;;;;;;;14.98;3.70;;;14.70;63.10;;;;;;3567661;40;20048;-70
2021/04/04 12:55:29;;;;;;;14.98;2.92;;;14.60;62.00;;;;;;3564573;40;20064;-70
2021/04/04 12:57:59;;;;;;;14.60;3.60;;;14.60;61.70;;;;;;3566607;40;20315;-71
2021/04/04 13:00:30;;;;;;;13.02;3.40;;;14.20;61.80;;;;;;3559005;40;20048;-71
2021/04/04 13:03:00;;;;;;;13.80;3.67;;;14.10;63.50;;;;;;3565208;40;20047;-71
2021/04/04 13:05:52;;;;;;;20.35;3.53;;;14.20;63.10;;;;;;3561573;40;20598;-71
2021/04/04 13:08:21;;;;;;;11.60;3.33;;;13.90;64.00;;;;;;3564601;40;20818;-71